createdAt,value
2016-06-12T00:00:26.667Z,55.24
2016-06-12T00:01:26.529Z,55.24
2016-06-12T00:02:26.689Z,55.53
2016-06-12T00:03:26.692Z,55.24
2016-06-12T00:04:26.554Z,54.95
2016-06-12T00:05:27.057Z,55.53
2016-06-12T00:06:26.701Z,54.85
2016-06-12T00:07:26.720Z,55.05
2016-06-12T00:08:26.723Z,55.53
2016-06-12T00:09:26.767Z,55.24
2016-06-12T00:10:26.809Z,54.85
2016-06-12T00:11:26.850Z,54.95
2016-06-12T00:12:26.891Z,55.24
2016-06-12T00:13:26.948Z,54.95
2016-06-12T00:14:26.973Z,55.05
2016-06-12T00:15:26.989Z,55.05
2016-06-12T00:16:27.007Z,55.24
2016-06-12T00:17:27.023Z,54.95
2016-06-12T00:18:27.055Z,55.43
2016-06-12T00:19:27.551Z,55.63
2016-06-12T00:20:27.090Z,54.95
2016-06-12T00:21:27.113Z,55.24
2016-06-12T00:22:27.106Z,54.95
2016-06-12T00:23:27.129Z,55.24
2016-06-12T00:24:27.135Z,55.24
2016-06-12T00:25:27.140Z,55.24
2016-06-12T00:26:27.161Z,55.53
2016-06-12T00:27:27.166Z,55.24
2016-06-12T00:28:27.171Z,54.95
2016-06-12T00:29:27.019Z,55.24
2016-06-12T00:30:27.195Z,55.43
2016-06-12T00:31:27.182Z,55.43
2016-06-12T00:32:27.202Z,55.24
2016-06-12T00:33:27.205Z,55.05
2016-06-12T00:34:27.459Z,55.24
2016-06-12T00:35:27.571Z,55.24
2016-06-12T00:36:27.230Z,55.24
2016-06-12T00:37:27.234Z,55.24
2016-06-12T00:38:27.253Z,55.24
2016-06-12T00:39:27.240Z,55.15
2016-06-12T00:40:27.260Z,55.24
2016-06-12T00:41:27.262Z,55.24
2016-06-12T00:42:27.266Z,54.95
2016-06-12T00:43:27.284Z,55.24
2016-06-12T00:44:27.288Z,55.24
2016-06-12T00:45:27.306Z,55.24
2016-06-12T00:46:27.309Z,55.15
2016-06-12T00:47:27.312Z,55.53
2016-06-12T00:48:27.378Z,55.53
2016-06-12T00:49:27.349Z,55.24
2016-06-12T00:50:28.666Z,55.53
2016-06-12T00:51:27.340Z,54.95
2016-06-12T00:52:27.344Z,55.15
2016-06-12T00:53:27.361Z,55.15
2016-06-12T00:54:27.381Z,55.24
2016-06-12T00:55:27.368Z,55.24
2016-06-12T00:56:27.386Z,55.53
2016-06-12T00:57:27.390Z,55.15
2016-06-12T00:58:27.393Z,54.95
2016-06-12T00:59:27.412Z,55.24
2016-06-12T01:00:27.415Z,55.24
2016-06-12T01:01:27.418Z,55.24
2016-06-12T01:02:27.421Z,55.15
2016-06-12T01:03:27.424Z,55.63
2016-06-12T01:04:27.443Z,55.05
2016-06-12T01:05:27.445Z,55.53
2016-06-12T01:06:27.448Z,55.24
2016-06-12T01:07:27.451Z,54.95
2016-06-12T01:08:27.471Z,55.53
2016-06-12T01:09:27.473Z,55.24
2016-06-12T01:10:27.477Z,55.05
2016-06-12T01:11:27.496Z,54.95
2016-06-12T01:12:27.498Z,55.24
2016-06-12T01:13:27.502Z,55.24
2016-06-12T01:14:27.505Z,54.95
2016-06-12T01:15:27.523Z,54.95
2016-06-12T01:16:27.527Z,55.63
2016-06-12T01:17:27.529Z,55.24
2016-06-12T01:18:27.549Z,55.53
2016-06-12T01:19:27.551Z,55.53
2016-06-12T01:20:27.726Z,55.24
2016-06-12T01:21:27.557Z,55.24
2016-06-12T01:22:27.575Z,55.24
2016-06-12T01:23:27.579Z,55.05
2016-06-12T01:24:27.582Z,55.24
2016-06-12T01:25:27.601Z,55.24
2016-06-12T01:26:27.604Z,55.24
2016-06-12T01:27:27.607Z,55.05
2016-06-12T01:28:27.610Z,54.95
2016-06-12T01:29:27.629Z,55.24
2016-06-12T01:30:27.632Z,55.24
2016-06-12T01:31:27.636Z,55.24
2016-06-12T01:32:27.653Z,55.53
2016-06-12T01:33:27.656Z,55.24
2016-06-12T01:34:27.660Z,54.85
2016-06-12T01:35:27.663Z,55.15
2016-06-12T01:36:27.682Z,55.24
2016-06-12T01:37:27.685Z,55.24
2016-06-12T01:38:27.688Z,55.24
2016-06-12T01:39:27.691Z,55.24
2016-06-12T01:40:27.694Z,55.24
2016-06-12T01:41:27.698Z,54.95
2016-06-12T01:42:27.716Z,55.05
2016-06-12T01:43:27.719Z,54.95
2016-06-12T01:44:27.581Z,55.24
2016-06-12T01:45:27.741Z,54.95
2016-06-12T01:46:27.744Z,55.43
2016-06-12T01:47:27.762Z,55.05
2016-06-12T01:48:27.766Z,55.05
2016-06-12T01:49:27.769Z,55.15
2016-06-12T01:50:27.772Z,55.53
2016-06-12T01:51:27.790Z,54.95
2016-06-12T01:52:27.793Z,54.95
2016-06-12T01:53:27.812Z,54.95
2016-06-12T01:54:27.799Z,55.15
2016-06-12T01:55:27.819Z,55.24
2016-06-12T01:56:27.805Z,55.53
2016-06-12T01:57:27.824Z,55.24
2016-06-12T01:58:27.828Z,55.24
2016-06-12T01:59:27.846Z,55.24
2016-06-12T02:00:27.850Z,55.24
2016-06-12T02:01:27.853Z,55.24
2016-06-12T02:02:27.856Z,55.53
2016-06-12T02:03:27.874Z,55.15
2016-06-12T02:04:27.877Z,55.24
2016-06-12T02:05:27.896Z,55.24
2016-06-12T02:06:27.883Z,55.63
2016-06-12T02:07:27.886Z,55.15
2016-06-12T02:08:27.905Z,55.24
2016-06-12T02:09:27.909Z,54.95
2016-06-12T02:10:27.928Z,55.15
2016-06-12T02:11:27.931Z,55.53
2016-06-12T02:12:27.949Z,55.24
2016-06-12T02:13:27.937Z,55.24
2016-06-12T02:14:27.955Z,55.53
2016-06-12T02:15:27.958Z,55.15
2016-06-12T02:16:27.977Z,55.15
2016-06-12T02:17:27.980Z,55.24
2016-06-12T02:18:27.983Z,55.15
2016-06-12T02:19:27.986Z,55.53
2016-06-12T02:20:28.004Z,55.15
2016-06-12T02:21:27.851Z,55.24
2016-06-12T02:22:28.011Z,55.24
2016-06-12T02:23:28.029Z,55.24
2016-06-12T02:24:28.157Z,55.24
2016-06-12T02:25:28.019Z,55.15
2016-06-12T02:26:28.039Z,55.53
2016-06-12T02:27:28.058Z,55.24
2016-06-12T02:28:28.044Z,55.24
2016-06-12T02:29:28.064Z,55.15
2016-06-12T02:30:28.067Z,55.24
2016-06-12T02:31:28.085Z,55.24
2016-06-12T02:32:28.073Z,55.24
2016-06-12T02:33:28.108Z,55.05
2016-06-12T02:34:28.094Z,55.24
2016-06-12T02:35:28.722Z,55.15
2016-06-12T02:36:28.116Z,55.53
2016-06-12T02:37:28.119Z,55.24
2016-06-12T02:38:28.123Z,55.43
2016-06-12T02:39:28.126Z,55.24
2016-06-12T02:40:28.145Z,55.43
2016-06-12T02:41:28.147Z,55.24
2016-06-12T02:42:28.151Z,55.05
2016-06-12T02:43:28.013Z,55.53
2016-06-12T02:44:28.172Z,54.85
2016-06-12T02:45:28.175Z,54.85
2016-06-12T02:46:28.178Z,55.15
2016-06-12T02:47:28.197Z,55.21
2016-06-12T02:48:28.200Z,55.43
2016-06-12T02:49:28.203Z,55.11
2016-06-12T02:50:28.237Z,55.05
2016-06-12T02:51:28.224Z,55.24
2016-06-12T02:52:28.228Z,55.11
2016-06-12T02:53:28.230Z,55.15
2016-06-12T02:54:28.233Z,55.24
2016-06-12T02:55:28.253Z,55.24
2016-06-12T02:56:28.256Z,55.24
2016-06-12T02:57:28.258Z,55.24
2016-06-12T02:58:28.278Z,55.15
2016-06-12T02:59:28.281Z,55.11
2016-06-12T03:00:28.284Z,55.24
2016-06-12T03:01:28.302Z,55.15
2016-06-12T03:02:28.305Z,55.15
2016-06-12T03:03:28.308Z,55.24
2016-06-12T03:04:28.311Z,55.24
2016-06-12T03:05:28.784Z,55.15
2016-06-12T03:06:28.333Z,55.11
2016-06-12T03:07:28.336Z,55.51
2016-06-12T03:08:28.340Z,55.24
2016-06-12T03:09:28.359Z,55.24
2016-06-12T03:10:28.345Z,55.15
2016-06-12T03:11:28.365Z,55.15
2016-06-12T03:12:28.368Z,55.15
2016-06-12T03:13:28.386Z,55.34
2016-06-12T03:14:28.389Z,55.21
2016-06-12T03:15:28.392Z,55.24
2016-06-12T03:16:28.396Z,54.85
2016-06-12T03:17:28.398Z,55.15
2016-06-12T03:18:28.417Z,55.11
2016-06-12T03:19:28.435Z,55.15
2016-06-12T03:20:28.438Z,55.11
2016-06-12T03:21:28.458Z,55.24
2016-06-12T03:22:28.444Z,55.11
2016-06-12T03:23:28.447Z,55.21
2016-06-12T03:24:28.467Z,54.93
2016-06-12T03:25:28.470Z,55.21
2016-06-12T03:26:28.473Z,55.15
2016-06-12T03:27:28.476Z,55.7
2016-06-12T03:28:28.495Z,55.15
2016-06-12T03:29:28.513Z,55.53
2016-06-12T03:30:28.517Z,55.05
2016-06-12T03:31:28.504Z,55.24
2016-06-12T03:32:28.350Z,55.21
2016-06-12T03:33:28.526Z,55.15
2016-06-12T03:34:28.529Z,55.24
2016-06-12T03:35:28.579Z,55.51
2016-06-12T03:36:28.550Z,55.15
2016-06-12T03:37:28.554Z,55.11
2016-06-12T03:38:28.557Z,55.11
2016-06-12T03:39:28.576Z,55.43
2016-06-12T03:40:28.594Z,55.24
2016-06-12T03:41:28.582Z,55.63
2016-06-12T03:42:28.586Z,55.15
2016-06-12T03:43:28.603Z,54.95
2016-06-12T03:44:28.606Z,55.24
2016-06-12T03:45:28.609Z,55.21
2016-06-12T03:46:28.612Z,55.15
2016-06-12T03:47:28.632Z,55.11
2016-06-12T03:48:28.635Z,55.15
2016-06-12T03:49:28.652Z,55.24
2016-06-12T03:50:29.250Z,55.51
2016-06-12T03:51:28.659Z,55.24
2016-06-12T03:52:28.662Z,55.24
2016-06-12T03:53:28.681Z,55.11
2016-06-12T03:54:28.684Z,55.15
2016-06-12T03:55:28.688Z,55.43
2016-06-12T03:56:28.690Z,54.93
2016-06-12T03:57:28.693Z,55.15
2016-06-12T03:58:28.712Z,55.15
2016-06-12T03:59:28.715Z,55.21
2016-06-12T04:00:28.734Z,55.15
2016-06-12T04:01:28.737Z,55.43
2016-06-12T04:02:28.739Z,55.24
2016-06-12T04:03:28.742Z,55.24
2016-06-12T04:04:28.746Z,55.53
2016-06-12T04:05:28.765Z,55.24
2016-06-12T04:06:29.409Z,55.21
2016-06-12T04:07:28.771Z,55.24
2016-06-12T04:08:28.774Z,55.24
2016-06-12T04:09:28.777Z,55.53
2016-06-12T04:10:28.796Z,55.24
2016-06-12T04:11:28.799Z,55.24
2016-06-12T04:12:28.802Z,55.24
2016-06-12T04:13:28.820Z,54.95
2016-06-12T04:14:28.668Z,55.24
2016-06-12T04:15:28.826Z,55.24
2016-06-12T04:16:28.846Z,55.24
2016-06-12T04:17:28.849Z,55.21
2016-06-12T04:18:28.852Z,54.95
2016-06-12T04:19:28.854Z,55.05
2016-06-12T04:20:28.873Z,55.24
2016-06-12T04:21:29.564Z,55.24
2016-06-12T04:22:28.879Z,55.24
2016-06-12T04:23:28.898Z,54.93
2016-06-12T04:24:28.901Z,55.15
2016-06-12T04:25:28.905Z,54.93
2016-06-12T04:26:28.907Z,55.63
2016-06-12T04:27:28.926Z,55.05
2016-06-12T04:28:28.929Z,55.53
2016-06-12T04:29:28.933Z,55.05
2016-06-12T04:30:28.936Z,54.95
2016-06-12T04:31:28.954Z,55.05
2016-06-12T04:32:28.956Z,55.05
2016-06-12T04:33:28.976Z,54.95
2016-06-12T04:34:28.979Z,55.53
2016-06-12T04:35:29.138Z,55.15
2016-06-12T04:36:29.438Z,55.05
2016-06-12T04:37:28.988Z,54.95
2016-06-12T04:38:29.008Z,55.05
2016-06-12T04:39:29.010Z,55.05
2016-06-12T04:40:29.028Z,55.15
2016-06-12T04:41:29.017Z,55.05
2016-06-12T04:42:29.035Z,55.15
2016-06-12T04:43:29.038Z,55.15
2016-06-12T04:44:29.041Z,55.15
2016-06-12T04:45:29.044Z,55.05
2016-06-12T04:46:29.063Z,55.05
2016-06-12T04:47:29.081Z,55.15
2016-06-12T04:48:29.084Z,55.05
2016-06-12T04:49:29.072Z,54.85
2016-06-12T04:50:29.090Z,55.05
2016-06-12T04:51:29.093Z,55.15
2016-06-12T04:52:29.113Z,55.05
2016-06-12T04:53:29.099Z,55.15
2016-06-12T04:54:29.118Z,55.15
2016-06-12T04:55:29.122Z,54.85
2016-06-12T04:56:29.125Z,55.15
2016-06-12T04:57:29.127Z,55.15
2016-06-12T04:58:29.147Z,55.82
2016-06-12T04:59:29.150Z,55.05
2016-06-12T05:00:29.153Z,55.15
2016-06-12T05:01:29.171Z,55.92
2016-06-12T05:02:29.174Z,55.15
2016-06-12T05:03:29.177Z,55.05
2016-06-12T05:04:29.180Z,55.82
2016-06-12T05:05:29.199Z,55.92
2016-06-12T05:06:29.515Z,55.15
2016-06-12T05:07:29.206Z,55.05
2016-06-12T05:08:29.224Z,55.05
2016-06-12T05:09:29.227Z,55.05
2016-06-12T05:10:29.231Z,55.15
2016-06-12T05:11:29.234Z,55.15
2016-06-12T05:12:29.251Z,55.15
2016-06-12T05:13:29.271Z,55.15
2016-06-12T05:14:29.258Z,55.63
2016-06-12T05:15:29.277Z,54.85
2016-06-12T05:16:29.280Z,55.05
2016-06-12T05:17:29.283Z,54.85
2016-06-12T05:18:29.770Z,55.05
2016-06-12T05:19:29.321Z,54.75
2016-06-12T05:20:29.307Z,54.85
2016-06-12T05:21:29.310Z,55.05
2016-06-12T05:22:29.314Z,54.85
2016-06-12T05:23:29.317Z,55.53
2016-06-12T05:24:29.335Z,55.05
2016-06-12T05:25:29.339Z,54.75
2016-06-12T05:26:29.357Z,54.85
2016-06-12T05:27:29.361Z,55.15
2016-06-12T05:28:29.364Z,55.34
2016-06-12T05:29:29.367Z,54.85
2016-06-12T05:30:29.229Z,54.85
2016-06-12T05:31:29.389Z,54.85
2016-06-12T05:32:29.391Z,54.85
2016-06-12T05:33:29.395Z,54.85
2016-06-12T05:34:29.397Z,54.85
2016-06-12T05:35:29.417Z,54.75
2016-06-12T05:36:29.263Z,54.85
2016-06-12T05:37:29.439Z,54.75
2016-06-12T05:38:29.442Z,54.95
2016-06-12T05:39:29.445Z,54.85
2016-06-12T05:40:29.448Z,54.95
2016-06-12T05:41:29.466Z,54.85
2016-06-12T05:42:29.469Z,54.75
2016-06-12T05:43:29.472Z,55.34
2016-06-12T05:44:29.491Z,54.66
2016-06-12T05:45:29.494Z,54.95
2016-06-12T05:46:29.497Z,54.85
2016-06-12T05:47:29.500Z,54.95
2016-06-12T05:48:29.518Z,54.75
2016-06-12T05:49:29.521Z,55.15
2016-06-12T05:50:29.524Z,55.43
2016-06-12T05:51:29.778Z,54.75
2016-06-12T05:52:29.547Z,54.66
2016-06-12T05:53:29.550Z,54.75
2016-06-12T05:54:29.553Z,54.66
2016-06-12T05:55:29.556Z,54.75
2016-06-12T05:56:29.575Z,54.75
2016-06-12T05:57:29.421Z,54.75
2016-06-12T05:58:29.597Z,54.75
2016-06-12T05:59:29.599Z,55.34
2016-06-12T06:00:29.602Z,55.34
2016-06-12T06:01:29.606Z,54.95
2016-06-12T06:02:29.608Z,54.85
2016-06-12T06:03:29.628Z,54.95
2016-06-12T06:04:29.630Z,55.05
2016-06-12T06:05:29.650Z,54.85
2016-06-12T06:06:29.886Z,54.95
2016-06-12T06:07:29.656Z,54.85
2016-06-12T06:08:29.659Z,54.95
2016-06-12T06:09:29.662Z,55.17
2016-06-12T06:10:29.665Z,55.34
2016-06-12T06:11:29.683Z,54.95
2016-06-12T06:12:29.686Z,54.88
2016-06-12T06:13:29.705Z,54.95
2016-06-12T06:14:29.708Z,54.95
2016-06-12T06:15:29.712Z,54.95
2016-06-12T06:16:29.729Z,54.85
2016-06-12T06:17:29.732Z,55.36
2016-06-12T06:18:29.736Z,55.27
2016-06-12T06:19:29.755Z,54.85
2016-06-12T06:20:29.758Z,55.15
2016-06-12T06:21:29.760Z,54.85
2016-06-12T06:22:29.764Z,54.98
2016-06-12T06:23:29.767Z,54.95
2016-06-12T06:24:29.770Z,54.85
2016-06-12T06:25:29.773Z,54.85
2016-06-12T06:26:29.793Z,55.24
2016-06-12T06:27:29.795Z,54.85
2016-06-12T06:28:29.813Z,54.85
2016-06-12T06:29:29.817Z,55.24
2016-06-12T06:30:29.820Z,54.95
2016-06-12T06:31:29.839Z,54.88
2016-06-12T06:32:29.841Z,54.85
2016-06-12T06:33:29.845Z,54.85
2016-06-12T06:34:29.864Z,54.98
2016-06-12T06:35:29.866Z,55.05
2016-06-12T06:36:29.932Z,54.98
2016-06-12T06:37:29.873Z,54.85
2016-06-12T06:38:29.719Z,54.95
2016-06-12T06:39:29.910Z,54.95
2016-06-12T06:40:29.914Z,54.88
2016-06-12T06:41:29.901Z,54.95
2016-06-12T06:42:29.919Z,54.88
2016-06-12T06:43:29.923Z,54.85
2016-06-12T06:44:29.925Z,54.85
2016-06-12T06:45:29.929Z,55.27
2016-06-12T06:46:29.947Z,54.95
2016-06-12T06:47:29.950Z,54.85
2016-06-12T06:48:29.953Z,54.85
2016-06-12T06:49:30.018Z,54.98
2016-06-12T06:50:29.975Z,54.95
2016-06-12T06:51:29.994Z,54.95
2016-06-12T06:52:29.981Z,54.95
2016-06-12T06:53:30.047Z,54.95
2016-06-12T06:54:30.003Z,54.88
2016-06-12T06:55:30.006Z,54.85
2016-06-12T06:56:30.009Z,54.85
2016-06-12T06:57:30.013Z,54.95
2016-06-12T06:58:30.031Z,55.24
2016-06-12T06:59:30.049Z,54.85
2016-06-12T07:00:30.053Z,54.95
2016-06-12T07:01:30.056Z,54.95
2016-06-12T07:02:30.059Z,55.17
2016-06-12T07:03:30.062Z,54.88
2016-06-12T07:04:30.081Z,54.98
2016-06-12T07:05:30.084Z,54.95
2016-06-12T07:06:30.118Z,54.85
2016-06-12T07:07:30.091Z,54.88
2016-06-12T07:08:30.094Z,54.59
2016-06-12T07:09:30.112Z,54.88
2016-06-12T07:10:30.114Z,54.98
2016-06-12T07:11:30.134Z,54.79
2016-06-12T07:12:30.137Z,54.88
2016-06-12T07:13:30.155Z,54.49
2016-06-12T07:14:30.142Z,54.88
2016-06-12T07:15:30.161Z,54.59
2016-06-12T07:16:30.164Z,55.27
2016-06-12T07:17:30.183Z,54.59
2016-06-12T07:18:30.170Z,55.27
2016-06-12T07:19:30.189Z,54.59
2016-06-12T07:20:30.192Z,54.69
2016-06-12T07:21:30.289Z,54.69
2016-06-12T07:22:30.214Z,54.69
2016-06-12T07:23:30.218Z,54.69
2016-06-12T07:24:30.221Z,54.79
2016-06-12T07:25:30.238Z,54.69
2016-06-12T07:26:30.242Z,54.69
2016-06-12T07:27:30.244Z,54.88
2016-06-12T07:28:30.263Z,54.59
2016-06-12T07:29:30.267Z,54.69
2016-06-12T07:30:30.286Z,54.49
2016-06-12T07:31:30.273Z,54.66
2016-06-12T07:32:30.276Z,54.59
2016-06-12T07:33:30.295Z,54.59
2016-06-12T07:34:30.298Z,54.79
2016-06-12T07:35:30.301Z,54.59
2016-06-12T07:36:30.319Z,54.88
2016-06-12T07:37:30.322Z,54.69
2016-06-12T07:38:30.326Z,54.79
2016-06-12T07:39:30.329Z,54.69
2016-06-12T07:40:30.207Z,54.49
2016-06-12T07:41:30.351Z,54.69
2016-06-12T07:42:30.213Z,54.49
2016-06-12T07:43:30.201Z,54.69
2016-06-12T07:44:30.375Z,54.69
2016-06-12T07:45:30.378Z,54.69
2016-06-12T07:46:30.381Z,54.69
2016-06-12T07:47:30.400Z,54.88
2016-06-12T07:48:30.403Z,54.69
2016-06-12T07:49:30.469Z,54.59
2016-06-12T07:50:30.425Z,54.69
2016-06-12T07:51:30.428Z,54.69
2016-06-12T07:52:30.728Z,54.69
2016-06-12T07:53:30.435Z,54.59
2016-06-12T07:54:30.453Z,54.79
2016-06-12T07:55:30.456Z,54.69
2016-06-12T07:56:30.459Z,54.59
2016-06-12T07:57:30.478Z,54.98
2016-06-12T07:58:30.481Z,54.49
2016-06-12T07:59:30.484Z,54.59
2016-06-12T08:00:30.503Z,54.88
2016-06-12T08:01:30.506Z,54.69
2016-06-12T08:02:30.510Z,54.98
2016-06-12T08:03:30.512Z,54.49
2016-06-12T08:04:30.531Z,54.49
2016-06-12T08:05:30.533Z,54.69
2016-06-12T08:06:31.255Z,54.59
2016-06-12T08:07:30.556Z,54.49
2016-06-12T08:08:30.558Z,54.59
2016-06-12T08:09:30.577Z,54.49
2016-06-12T08:10:30.580Z,54.59
2016-06-12T08:11:30.583Z,55.07
2016-06-12T08:12:30.586Z,54.59
2016-06-12T08:13:30.589Z,54.49
2016-06-12T08:14:30.452Z,54.98
2016-06-12T08:15:30.595Z,54.59
2016-06-12T08:16:30.614Z,54.49
2016-06-12T08:17:30.617Z,54.59
2016-06-12T08:18:30.620Z,54.49
2016-06-12T08:19:30.640Z,54.88
2016-06-12T08:20:30.642Z,54.59
2016-06-12T08:21:31.099Z,54.59
2016-06-12T08:22:30.914Z,54.98
2016-06-12T08:23:30.667Z,54.98
2016-06-12T08:24:30.670Z,54.49
2016-06-12T08:25:30.689Z,54.88
2016-06-12T08:26:30.677Z,54.49
2016-06-12T08:27:30.695Z,54.49
2016-06-12T08:28:30.542Z,54.49
2016-06-12T08:29:30.718Z,54.98
2016-06-12T08:30:30.720Z,54.69
2016-06-12T08:31:30.739Z,54.59
2016-06-12T08:32:30.741Z,54.49
2016-06-12T08:33:30.744Z,54.59
2016-06-12T08:34:30.889Z,54.98
2016-06-12T08:35:30.906Z,54.98
2016-06-12T08:36:30.926Z,54.98
2016-06-12T08:37:31.117Z,54.49
2016-06-12T08:38:31.291Z,54.98
2016-06-12T08:39:31.216Z,54.59
2016-06-12T08:40:31.501Z,54.98
2016-06-12T08:41:31.238Z,54.49
2016-06-12T08:42:31.258Z,54.49
2016-06-12T08:43:31.261Z,54.49
2016-06-12T08:44:31.684Z,54.49
2016-06-12T08:45:30.829Z,54.3
2016-06-12T08:46:30.847Z,54.49
2016-06-12T08:47:30.850Z,54.49
2016-06-12T08:48:30.854Z,54.59
2016-06-12T08:49:30.857Z,54.59
2016-06-12T08:50:30.875Z,54.59
2016-06-12T08:51:30.878Z,54.3
2016-06-12T08:52:30.897Z,54.49
2016-06-12T08:53:30.900Z,54.59
2016-06-12T08:54:30.904Z,54.49
2016-06-12T08:55:30.907Z,54.39
2016-06-12T08:56:30.909Z,54.49
2016-06-12T08:57:30.929Z,54.49
2016-06-12T08:58:30.932Z,54.59
2016-06-12T08:59:30.966Z,54.59
2016-06-12T09:00:30.968Z,54.98
2016-06-12T09:01:30.956Z,54.59
2016-06-12T09:02:30.975Z,54.49
2016-06-12T09:03:30.962Z,54.3
2016-06-12T09:04:30.981Z,54.49
2016-06-12T09:05:31.015Z,55.07
2016-06-12T09:06:31.002Z,54.49
2016-06-12T09:07:31.005Z,54.49
2016-06-12T09:08:31.009Z,54.49
2016-06-12T09:09:31.027Z,54.59
2016-06-12T09:10:31.015Z,54.49
2016-06-12T09:11:31.034Z,54.88
2016-06-12T09:12:31.036Z,54.49
2016-06-12T09:13:31.039Z,54.39
2016-06-12T09:14:31.060Z,54.39
2016-06-12T09:15:31.103Z,54.59
2016-06-12T09:16:31.194Z,54.49
2016-06-12T09:17:31.394Z,54.49
2016-06-12T09:18:31.844Z,54.3
2016-06-12T09:19:31.762Z,54.3
2016-06-12T09:20:31.311Z,54.39
2016-06-12T09:21:31.344Z,54.3
2016-06-12T09:22:31.206Z,54.49
2016-06-12T09:23:31.380Z,54.49
2016-06-12T09:24:31.413Z,54.49
2016-06-12T09:25:31.421Z,54.3
2016-06-12T09:26:31.429Z,54.49
2016-06-12T09:27:31.452Z,54.33
2016-06-12T09:28:31.461Z,54.88
2016-06-12T09:29:31.469Z,54.79
2016-06-12T09:30:31.474Z,54.39
2016-06-12T09:31:31.494Z,54.49
2016-06-12T09:32:31.500Z,55.07
2016-06-12T09:33:31.504Z,54.79
2016-06-12T09:34:31.524Z,54.39
2016-06-12T09:35:31.528Z,54.49
2016-06-12T09:36:31.532Z,54.39
2016-06-12T09:37:31.552Z,54.21
2016-06-12T09:38:31.555Z,54.33
2016-06-12T09:39:31.560Z,54.39
2016-06-12T09:40:31.563Z,54.3
2016-06-12T09:41:31.582Z,54.49
2016-06-12T09:42:31.586Z,54.21
2016-06-12T09:43:31.589Z,55.07
2016-06-12T09:44:31.608Z,54.39
2016-06-12T09:45:31.611Z,54.3
2016-06-12T09:46:31.614Z,54.3
2016-06-12T09:47:31.617Z,54.39
2016-06-12T09:48:31.636Z,54.39
2016-06-12T09:49:31.639Z,54.3
2016-06-12T09:50:31.642Z,54.39
2016-06-12T09:51:31.646Z,54.71
2016-06-12T09:52:31.726Z,54.3
2016-06-12T09:53:31.667Z,54.39
2016-06-12T09:54:31.530Z,54.52
2016-06-12T09:55:31.705Z,54.88
2016-06-12T09:56:31.707Z,54.3
2016-06-12T09:57:31.694Z,54.69
2016-06-12T09:58:31.714Z,54.39
2016-06-12T09:59:32.045Z,54.39
2016-06-12T10:00:31.720Z,54.39
2016-06-12T10:01:31.738Z,54.3
2016-06-12T10:02:31.726Z,54.39
2016-06-12T10:03:31.744Z,54.43
2016-06-12T10:04:31.747Z,54.3
2016-06-12T10:05:56.938Z,54.3
2016-06-12T10:06:31.770Z,54.79
2016-06-12T10:07:32.350Z,54.3
2016-06-12T10:08:31.775Z,54.39
2016-06-12T10:09:31.795Z,54.21
2016-06-12T10:10:31.798Z,54.39
2016-06-12T10:11:31.800Z,54.43
2016-06-12T10:12:31.851Z,54.3
2016-06-12T10:13:31.822Z,54.43
2016-06-12T10:14:32.263Z,54.3
2016-06-12T10:15:31.860Z,54.3
2016-06-12T10:16:31.847Z,54.3
2016-06-12T10:17:31.850Z,54.3
2016-06-12T10:18:31.853Z,54.33
2016-06-12T10:19:31.873Z,54.33
2016-06-12T10:20:31.875Z,54.33
2016-06-12T10:21:31.878Z,54.33
2016-06-12T10:22:32.413Z,54.33
2016-06-12T10:23:31.900Z,54.33
2016-06-12T10:24:31.903Z,54.3
2016-06-12T10:25:31.906Z,54.79
2016-06-12T10:26:31.909Z,54.39
2016-06-12T10:27:31.928Z,54.39
2016-06-12T10:28:31.946Z,54.79
2016-06-12T10:29:31.934Z,54.81
2016-06-12T10:30:31.952Z,54.52
2016-06-12T10:31:31.956Z,54.33
2016-06-12T10:32:31.975Z,54.21
2016-06-12T10:33:31.978Z,54.43
2016-06-12T10:34:31.980Z,54.3
2016-06-12T10:35:31.984Z,54.43
2016-06-12T10:36:32.003Z,54.33
2016-06-12T10:37:32.646Z,54.39
2016-06-12T10:38:31.852Z,54.81
2016-06-12T10:39:31.855Z,54.23
2016-06-12T10:40:32.030Z,54.39
2016-06-12T10:41:32.033Z,54.88
2016-06-12T10:42:32.036Z,54.33
2016-06-12T10:43:32.055Z,54.81
2016-06-12T10:44:32.058Z,54.3
2016-06-12T10:45:32.061Z,54.21
2016-06-12T10:46:32.080Z,54.43
2016-06-12T10:47:32.083Z,54.33
2016-06-12T10:48:32.087Z,54.79
2016-06-12T10:49:32.090Z,54.3
2016-06-12T10:50:32.107Z,54.39
2016-06-12T10:51:32.111Z,54.3
2016-06-12T10:52:32.130Z,54.81
2016-06-12T10:53:32.132Z,54.39
2016-06-12T10:54:32.136Z,54.39
2016-06-12T10:55:32.139Z,54.21
2016-06-12T10:56:32.157Z,54.79
2016-06-12T10:57:32.145Z,54.33
2016-06-12T10:58:32.164Z,54.59
2016-06-12T10:59:32.166Z,54.39
2016-06-12T11:00:32.185Z,54.52
2016-06-12T11:01:32.188Z,54.39
2016-06-12T11:02:32.192Z,54.3
2016-06-12T11:03:32.195Z,54.3
2016-06-12T11:04:32.197Z,54.39
2016-06-12T11:05:32.217Z,54.23
2016-06-12T11:06:32.220Z,54.3
2016-06-12T11:07:32.987Z,54.39
2016-06-12T11:08:32.991Z,54.3
2016-06-12T11:09:32.697Z,54.39
2016-06-12T11:10:32.716Z,54.21
2016-06-12T11:11:32.703Z,54.81
2016-06-12T11:12:32.706Z,54.59
2016-06-12T11:13:32.678Z,54.43
2016-06-12T11:14:32.667Z,54.71
2016-06-12T11:15:32.748Z,54.3
2016-06-12T11:16:33.173Z,54.49
2016-06-12T11:17:32.691Z,54.81
2016-06-12T11:18:32.318Z,54.43
2016-06-12T11:19:32.322Z,54.52
2016-06-12T11:20:32.325Z,54.79
2016-06-12T11:21:32.344Z,54.33
2016-06-12T11:22:32.347Z,54.49
2016-06-12T11:23:32.365Z,54.79
2016-06-12T11:24:32.368Z,54.23
2016-06-12T11:25:32.371Z,54.43
2016-06-12T11:26:32.374Z,54.33
2016-06-12T11:27:32.377Z,54.33
2016-06-12T11:28:32.396Z,54.49
2016-06-12T11:29:32.400Z,54.33
2016-06-12T11:30:32.402Z,54.33
2016-06-12T11:31:32.421Z,54.33
2016-06-12T11:32:32.425Z,54.39
2016-06-12T11:33:32.428Z,54.43
2016-06-12T11:34:32.431Z,54.33
2016-06-12T11:35:32.449Z,54.52
2016-06-12T11:36:32.468Z,54.33
2016-06-12T11:37:32.863Z,54.33
2016-06-12T11:38:32.834Z,54.43
2016-06-12T11:39:32.478Z,54.52
2016-06-12T11:40:32.481Z,54.81
2016-06-12T11:41:32.483Z,54.33
2016-06-12T11:42:32.502Z,54.33
2016-06-12T11:43:32.520Z,54.43
2016-06-12T11:44:32.508Z,54.91
2016-06-12T11:45:32.527Z,54.91
2016-06-12T11:46:32.640Z,54.43
2016-06-12T11:47:32.533Z,54.39
2016-06-12T11:48:32.552Z,54.39
2016-06-12T11:49:32.555Z,54.43
2016-06-12T11:50:32.573Z,54.71
2016-06-12T11:51:32.592Z,54.43
2016-06-12T11:52:32.579Z,54.33
2016-06-12T11:53:32.599Z,54.33
2016-06-12T11:54:32.585Z,54.43
2016-06-12T11:55:32.589Z,54.52
2016-06-12T11:56:32.608Z,54.43
2016-06-12T11:57:32.610Z,54.3
2016-06-12T11:58:32.613Z,54.33
2016-06-12T11:59:32.633Z,54.81
2016-06-12T12:00:32.636Z,54.52
2016-06-12T12:01:32.639Z,54.52
2016-06-12T12:02:32.657Z,54.43
2016-06-12T12:03:32.660Z,54.33
2016-06-12T12:04:32.663Z,54.33
2016-06-12T12:05:32.666Z,54.88
2016-06-12T12:06:32.685Z,54.33
2016-06-12T12:07:33.250Z,54.43
2016-06-12T12:08:32.707Z,54.43
2016-06-12T12:09:32.710Z,54.33
2016-06-12T12:10:32.714Z,54.43
2016-06-12T12:11:32.716Z,54.33
2016-06-12T12:12:32.734Z,54.33
2016-06-12T12:13:32.738Z,54.39
2016-06-12T12:14:32.757Z,54.43
2016-06-12T12:15:32.760Z,54.79
2016-06-12T12:16:32.764Z,54.43
2016-06-12T12:17:32.766Z,54.43
2016-06-12T12:18:32.784Z,54.71
2016-06-12T12:19:32.804Z,54.71
2016-06-12T12:20:32.807Z,54.3
2016-06-12T12:21:32.810Z,54.39
2016-06-12T12:22:32.813Z,54.91
2016-06-12T12:23:33.285Z,54.43
2016-06-12T12:24:32.818Z,54.71
2016-06-12T12:25:32.838Z,54.43
2016-06-12T12:26:32.841Z,54.71
2016-06-12T12:27:32.843Z,54.3
2016-06-12T12:28:32.862Z,54.71
2016-06-12T12:29:32.865Z,54.81
2016-06-12T12:30:32.868Z,54.43
2016-06-12T12:31:32.872Z,54.43
2016-06-12T12:32:32.890Z,54.71
2016-06-12T12:33:32.894Z,54.33
2016-06-12T12:34:32.897Z,54.23
2016-06-12T12:35:32.915Z,54.33
2016-06-12T12:36:32.918Z,54.71
2016-06-12T12:37:33.514Z,54.43
2016-06-12T12:38:33.127Z,54.33
2016-06-12T12:39:32.943Z,54.43
2016-06-12T12:40:32.946Z,54.43
2016-06-12T12:41:32.948Z,54.43
2016-06-12T12:42:32.968Z,54.62
2016-06-12T12:43:32.971Z,54.23
2016-06-12T12:44:32.975Z,54.62
2016-06-12T12:45:32.977Z,54.43
2016-06-12T12:46:32.995Z,54.33
2016-06-12T12:47:32.998Z,54.43
2016-06-12T12:48:33.001Z,54.88
2016-06-12T12:49:33.005Z,54.91
2016-06-12T12:50:33.040Z,54.23
2016-06-12T12:51:33.027Z,54.23
2016-06-12T12:52:33.046Z,54.21
2016-06-12T12:53:33.533Z,54.71